Time;durP1;ratioP1;P1;durP2;ratioP2;P2;SDS_P1;SDS_P2;PMS_P1;PMS_P2;Temp;Humidity;BMP_temperature;BMP_pressure;BME280_temperature;BME280_humidity;BME280_pressure;Samples;Min_cycle;Max_cycle;Signal;HPM_P1;HPM_P2
2023/07/26 00:00:53;;;;;;;13.32;3.90;;;;;;;;;;5072509;28;20433;-75
2023/07/26 00:03:19;;;;;;;16.30;4.57;;;;;;;;;;5072832;28;20048;-72
2023/07/26 00:05:47;;;;;;;12.85;4.53;;;;;;;;;;5072453;28;20058;-72
2023/07/26 00:08:13;;;;;;;9.90;4.53;;;;;;;;;;5056140;28;20127;-72
2023/07/26 00:10:46;;;;;;;12.25;4.57;;;14.50;99.90;;;;;;5072027;28;20048;-72
2023/07/26 00:13:13;;;;;;;14.60;4.88;;;;;;;;;;5072212;28;20041;-74
2023/07/26 00:15:39;;;;;;;13.48;4.25;;;;;;;;;;5071676;28;20048;-74
2023/07/26 00:18:05;;;;;;;11.23;4.70;;;;;;;;;;5072333;28;20037;-74
2023/07/26 00:20:31;;;;;;;13.68;4.78;;;;;;;;;;5055769;28;20222;-74
2023/07/26 00:22:57;;;;;;;9.10;3.80;;;;;;;;;;5072080;28;20086;-74
2023/07/26 00:25:23;;;;;;;22.65;4.90;;;;;;;;;;5072011;28;20041;-74
2023/07/26 00:27:49;;;;;;;11.68;4.05;;;;;;;;;;5072441;28;20115;-74
2023/07/26 00:30:15;;;;;;;9.40;4.70;;;;;;;;;;5072210;28;20461;-74
2023/07/26 00:32:41;;;;;;;7.88;4.05;;;;;;;;;;5071808;28;20040;-74
2023/07/26 00:35:08;;;;;;;12.75;3.75;;;;;;;;;;5071788;28;20048;-74
2023/07/26 00:37:34;;;;;;;9.32;4.35;;;;;;;;;;5055692;28;20505;-74
2023/07/26 00:40:00;;;;;;;10.60;3.70;;;;;;;;;;5071275;28;20043;-74
2023/07/26 00:42:26;;;;;;;12.38;3.92;;;;;;;;;;5071867;28;20513;-74
2023/07/26 00:44:52;;;;;;;12.15;3.80;;;;;;;;;;5055020;28;20479;-74
2023/07/26 00:47:18;;;;;;;14.80;3.75;;;;;;;;;;5071842;28;20052;-74
2023/07/26 00:49:44;;;;;;;16.73;4.05;;;;;;;;;;5071512;28;20498;-75
2023/07/26 00:52:12;;;;;;;9.38;4.10;;;14.00;99.90;;;;;;5071775;28;20056;-74
2023/07/26 00:54:38;;;;;;;23.67;4.25;;;;;;;;;;5070740;28;20504;-75
2023/07/26 00:57:04;;;;;;;11.38;3.42;;;;;;;;;;5071793;28;20123;-75
2023/07/26 00:59:31;;;;;;;9.75;3.53;;;;;;;;;;5072137;28;20032;-71
2023/07/26 01:01:57;;;;;;;14.32;3.47;;;;;;;;;;5054885;28;20036;-72
2023/07/26 01:04:23;;;;;;;13.40;3.90;;;;;;;;;;5071482;28;20044;-71
2023/07/26 01:07:39;;;;;;;8.75;3.88;;;14.00;99.90;;;;;;5069753;28;20041;-71
2023/07/26 01:10:16;;;;;;;11.48;4.00;;;13.90;99.90;;;;;;5062614;28;20094;-72
2023/07/26 01:12:55;;;;;;;14.52;3.58;;;;;;;;;;5088828;28;20044;-71
2023/07/26 01:15:24;;;;;;;11.35;3.90;;;;;;;;;;5071191;28;20040;-72
2023/07/26 01:18:07;;;;;;;10.73;3.53;;;14.00;99.90;;;;;;5071529;28;20119;-71
2023/07/26 01:20:33;;;;;;;11.80;4.07;;;;;;;;;;5071322;28;20042;-74
2023/07/26 01:22:59;;;;;;;13.60;3.90;;;;;;;;;;5071653;28;20033;-74
2023/07/26 01:25:25;;;;;;;13.38;3.53;;;;;;;;;;5070928;28;20094;-74
2023/07/26 01:27:51;;;;;;;12.98;3.85;;;;;;;;;;5071555;28;20033;-74
2023/07/26 01:30:17;;;;;;;9.25;3.75;;;;;;;;;;5071122;28;20101;-74
2023/07/26 01:32:44;;;;;;;9.77;3.60;;;;;;;;;;5071294;28;20044;-74
2023/07/26 01:35:10;;;;;;;11.93;3.60;;;;;;;;;;5071053;28;20360;-74
2023/07/26 01:37:37;;;;;;;11.75;3.72;;;;;;;;;;5071264;28;20613;-74
2023/07/26 01:40:04;;;;;;;11.68;3.55;;;;;;;;;;5071093;28;20029;-74
2023/07/26 01:42:30;;;;;;;13.65;4.10;;;;;;;;;;5071760;28;20497;-72
2023/07/26 01:45:01;;;;;;;12.20;3.95;;;;;;;;;;5071340;28;20470;-71
2023/07/26 01:47:27;;;;;;;15.52;3.63;;;;;;;;;;5071081;28;20048;-71
2023/07/26 01:49:53;;;;;;;9.85;3.85;;;;;;;;;;5054520;28;20044;-71
2023/07/26 01:52:19;;;;;;;13.55;4.43;;;;;;;;;;5070950;28;20052;-71
2023/07/26 01:54:45;;;;;;;14.23;4.22;;;;;;;;;;5070873;28;20045;-71
2023/07/26 01:57:11;;;;;;;13.88;4.38;;;;;;;;;;5070975;28;20490;-71
2023/07/26 01:59:37;;;;;;;16.85;4.45;;;;;;;;;;5054340;28;20029;-71
2023/07/26 02:02:03;;;;;;;11.40;3.70;;;;;;;;;;5071342;28;20048;-71
2023/07/26 02:04:29;;;;;;;13.85;3.97;;;;;;;;;;5071123;28;20040;-72
2023/07/26 02:06:56;;;;;;;8.48;4.30;;;;;;;;;;5073686;28;20076;-71
2023/07/26 02:09:22;;;;;;;11.73;3.97;;;;;;;;;;5074750;28;20113;-72
2023/07/26 02:11:49;;;;;;;16.35;4.47;;;;;;;;;;5074744;28;20042;-72
2023/07/26 02:14:16;;;;;;;13.50;4.22;;;13.70;99.90;;;;;;5084302;28;20105;-71
2023/07/26 02:16:42;;;;;;;16.40;4.43;;;;;;;;;;5077569;28;20048;-71
2023/07/26 02:19:08;;;;;;;19.25;4.40;;;;;;;;;;5074360;28;20033;-71
2023/07/26 02:21:34;;;;;;;14.07;4.50;;;;;;;;;;5074304;28;20143;-71
2023/07/26 02:24:00;;;;;;;12.68;4.00;;;;;;;;;;5074652;28;20052;-72
2023/07/26 02:26:26;;;;;;;15.85;4.85;;;;;;;;;;5074463;28;20044;-74
2023/07/26 02:28:52;;;;;;;17.38;4.32;;;;;;;;;;5074430;28;20050;-74
2023/07/26 02:31:18;;;;;;;13.50;4.50;;;;;;;;;;5074243;28;20052;-74
2023/07/26 02:33:45;;;;;;;18.13;5.07;;;;;;;;;;5074298;28;20082;-74
2023/07/26 02:36:11;;;;;;;15.15;3.75;;;13.60;99.90;;;;;;5074065;28;20028;-74
2023/07/26 02:38:37;;;;;;;15.68;5.13;;;;;;;;;;5074227;28;20033;-75
2023/07/26 02:41:03;;;;;;;16.00;4.40;;;;;;;;;;5074324;28;20545;-74
2023/07/26 02:43:29;;;;;;;16.35;4.18;;;;;;;;;;5074367;28;20370;-75
2023/07/26 02:45:55;;;;;;;24.33;4.55;;;;;;;;;;5073851;28;20047;-74
2023/07/26 02:48:21;;;;;;;13.77;4.25;;;;;;;;;;5073812;28;20070;-74
2023/07/26 02:50:48;;;;;;;19.63;4.07;;;;;;;;;;5076602;28;20048;-71
2023/07/26 02:53:14;;;;;;;19.13;4.63;;;;;;;;;;5090840;28;20067;-71
2023/07/26 02:55:43;;;;;;;14.80;4.80;;;;;;;;;;5073948;28;20331;-70
2023/07/26 02:58:10;;;;;;;19.17;5.15;;;13.50;99.90;;;;;;5073910;28;20129;-70
2023/07/26 03:00:36;;;;;;;16.23;4.38;;;;;;;;;;5073321;28;20119;-70
2023/07/26 03:03:02;;;;;;;16.20;4.38;;;;;;;;;;5073632;28;20382;-70
2023/07/26 03:05:28;;;;;;;19.35;5.38;;;;;;;;;;5057048;28;20048;-70
2023/07/26 03:07:55;;;;;;;17.88;4.88;;;;;;;;;;5081114;28;20532;-70
2023/07/26 03:10:21;;;;;;;22.25;4.60;;;;;;;;;;5076899;28;20036;-71
2023/07/26 03:12:47;;;;;;;18.00;5.28;;;;;;;;;;5073254;28;20040;-71
2023/07/26 03:15:13;;;;;;;17.30;5.20;;;;;;;;;;5056673;28;20454;-71
2023/07/26 03:17:39;;;;;;;23.17;6.10;;;;;;;;;;5072661;28;20048;-71
2023/07/26 03:20:05;;;;;;;23.98;6.28;;;12.50;99.90;;;;;;5073261;28;20036;-71
2023/07/26 03:22:31;;;;;;;24.88;6.80;;;;;;;;;;5073095;28;20082;-71
2023/07/26 03:24:57;;;;;;;29.33;7.40;;;;;;;;;;5073443;28;20037;-71
2023/07/26 03:27:23;;;;;;;21.95;6.20;;;;;;;;;;5073047;28;20044;-71
2023/07/26 03:29:49;;;;;;;22.45;6.20;;;;;;;;;;5073266;28;20401;-71
2023/07/26 03:32:16;;;;;;;16.38;5.45;;;;;;;;;;5072968;28;20094;-71
2023/07/26 03:34:42;;;;;;;16.38;5.78;;;;;;;;;;5072427;28;20072;-71
2023/07/26 03:37:08;;;;;;;20.90;5.55;;;;;;;;;;5072458;28;20139;-71
2023/07/26 03:39:34;;;;;;;22.20;5.35;;;;;;;;;;5072393;28;20040;-71
2023/07/26 03:42:00;;;;;;;24.73;5.95;;;13.80;99.90;;;;;;5071922;28;20032;-71
2023/07/26 03:44:26;;;;;;;18.20;5.63;;;;;;;;;;5072281;28;20040;-71
2023/07/26 03:46:52;;;;;;;19.92;6.07;;;;;;;;;;5056472;28;20044;-71
2023/07/26 03:49:18;;;;;;;15.27;4.88;;;;;;;;;;5056391;28;20036;-71
2023/07/26 03:51:45;;;;;;;14.88;5.90;;;;;;;;;;5072004;28;20060;-71
2023/07/26 03:54:11;;;;;;;17.60;5.28;;;;;;;;;;5072525;28;20063;-71
2023/07/26 03:56:37;;;;;;;18.65;5.55;;;;;;;;;;5072619;28;20043;-71
2023/07/26 03:59:03;;;;;;;17.58;5.40;;;;;;;;;;5056064;28;20044;-71
2023/07/26 04:01:29;;;;;;;18.27;5.78;;;;;;;;;;5072398;28;20076;-71
2023/07/26 04:03:55;;;;;;;18.05;5.10;;;;;;;;;;5055799;28;20127;-74
2023/07/26 04:06:21;;;;;;;21.65;5.13;;;;;;;;;;5073641;28;20047;-74
2023/07/26 04:08:47;;;;;;;16.73;5.40;;;;;;;;;;5072299;28;20058;-74
2023/07/26 04:11:13;;;;;;;17.58;6.13;;;;;;;;;;5072254;28;20039;-74
2023/07/26 04:13:40;;;;;;;21.90;5.15;;;;;;;;;;5072215;28;20087;-74
2023/07/26 04:16:13;;;;;;;19.42;5.30;;;;;;;;;;5072556;28;20037;-75
2023/07/26 04:18:39;;;;;;;21.75;5.55;;;;;;;;;;5055226;28;20115;-74
2023/07/26 04:21:05;;;;;;;23.38;5.55;;;;;;;;;;5071948;28;20044;-74
2023/07/26 04:23:31;;;;;;;19.05;5.30;;;;;;;;;;5072039;28;20043;-74
2023/07/26 04:25:57;;;;;;;24.20;5.40;;;;;;;;;;5072489;28;20359;-74
2023/07/26 04:28:23;;;;;;;25.10;5.32;;;;;;;;;;5055289;28;20040;-73
2023/07/26 04:30:49;;;;;;;27.73;5.53;;;;;;;;;;5055765;28;20079;-74
2023/07/26 04:33:15;;;;;;;16.42;4.93;;;;;;;;;;5071748;28;20129;-74
2023/07/26 04:35:44;;;;;;;23.83;5.65;;;;;;;;;;5071804;28;20119;-79
2023/07/26 04:38:11;;;;;;;24.55;4.70;;;;;;;;;;5071838;28;20074;-75
2023/07/26 04:40:38;;;;;;;16.95;4.55;;;;;;;;;;5072236;28;20085;-74
2023/07/26 04:43:04;;;;;;;18.30;4.80;;;13.90;99.90;;;;;;5054855;28;20040;-74
2023/07/26 04:45:30;;;;;;;23.98;5.60;;;;;;;;;;5074323;28;20123;-74
2023/07/26 04:47:56;;;;;;;22.30;5.63;;;;;;;;;;5080904;28;20036;-73
2023/07/26 04:50:23;;;;;;;26.88;5.88;;;;;;;;;;5079688;28;20436;-73
2023/07/26 04:52:49;;;;;;;15.30;5.22;;;;;;;;;;5081840;28;20039;-69
2023/07/26 04:55:15;;;;;;;29.35;4.75;;;;;;;;;;5078736;28;20374;-69
2023/07/26 04:57:41;;;;;;;20.02;5.50;;;;;;;;;;5082403;28;20040;-69
2023/07/26 05:00:08;;;;;;;22.55;5.32;;;13.90;99.90;;;;;;5083783;28;20032;-69
2023/07/26 05:02:34;;;;;;;17.58;5.57;;;;;;;;;;5063968;28;20383;-69
2023/07/26 05:05:00;;;;;;;25.95;5.53;;;;;;;;;;5070454;28;20398;-69
2023/07/26 05:07:26;;;;;;;21.30;4.95;;;;;;;;;;5051595;28;20044;-70
2023/07/26 05:09:52;;;;;;;17.75;5.88;;;;;;;;;;5072100;28;20481;-69
2023/07/26 05:12:18;;;;;;;24.77;5.65;;;;;;;;;;5082602;28;20047;-69
2023/07/26 05:14:44;;;;;;;20.98;5.00;;;;;;;;;;5047564;28;20153;-69
2023/07/26 05:17:10;;;;;;;19.77;5.97;;;;;;;;;;5058181;28;20136;-69
2023/07/26 05:19:36;;;;;;;23.40;5.90;;;;;;;;;;5070883;28;20040;-68
2023/07/26 05:22:02;;;;;;;20.25;5.25;;;;;;;;;;5076044;28;20139;-69
2023/07/26 05:24:29;;;;;;;20.45;5.93;;;;;;;;;;5078923;28;20040;-69
2023/07/26 05:26:55;;;;;;;15.98;5.28;;;;;;;;;;5076607;28;20040;-69
2023/07/26 05:29:21;;;;;;;14.32;5.00;;;;;;;;;;5076037;28;20044;-69
2023/07/26 05:31:47;;;;;;;25.98;6.13;;;;;;;;;;5071141;28;20037;-70
2023/07/26 05:34:13;;;;;;;14.63;4.85;;;;;;;;;;5053881;28;20055;-69
2023/07/26 05:36:39;;;;;;;19.90;5.25;;;;;;;;;;5079097;28;20036;-70
2023/07/26 05:39:05;;;;;;;20.60;5.90;;;;;;;;;;5080976;28;20444;-70
2023/07/26 05:41:31;;;;;;;18.73;4.95;;;;;;;;;;5073287;28;20064;-70
2023/07/26 05:44:01;;;;;;;20.48;5.47;;;;;;;;;;5075011;28;20094;-70
2023/07/26 05:46:27;;;;;;;16.52;5.35;;;;;;;;;;5074799;28;20070;-70
2023/07/26 05:48:53;;;;;;;25.00;6.07;;;;;;;;;;5075009;28;20045;-69
2023/07/26 05:51:19;;;;;;;19.80;6.45;;;;;;;;;;5074682;28;20056;-69
2023/07/26 05:53:45;;;;;;;26.35;6.65;;;;;;;;;;5074904;28;20051;-70
2023/07/26 05:56:13;;;;;;;21.25;6.32;;;;;;;;;;5074681;28;20033;-69
2023/07/26 05:58:39;;;;;;;21.02;7.32;;;;;;;;;;5074831;28;20068;-69
2023/07/26 06:01:05;;;;;;;23.55;5.60;;;;;;;;;;5074569;28;20032;-69
2023/07/26 06:03:33;;;;;;;17.75;5.70;;;;;;;;;;5074080;28;20052;-69
2023/07/26 06:06:00;;;;;;;20.77;6.45;;;;;;;;;;5074500;28;20043;-69
2023/07/26 06:08:26;;;;;;;18.50;5.63;;;;;;;;;;5074761;28;20036;-69
2023/07/26 06:10:52;;;;;;;16.27;5.80;;;;;;;;;;5074822;28;20036;-69
2023/07/26 06:13:18;;;;;;;16.40;5.30;;;;;;;;;;5074091;28;20047;-69
2023/07/26 06:15:44;;;;;;;19.58;5.80;;;;;;;;;;5074274;28;20040;-69
2023/07/26 06:18:10;;;;;;;15.02;5.72;;;;;;;;;;5074798;28;20099;-73
2023/07/26 06:20:36;;;;;;;16.20;4.85;;;;;;;;;;5074448;28;20114;-74
2023/07/26 06:23:02;;;;;;;20.20;6.35;;;;;;;;;;5057530;28;20055;-73
2023/07/26 06:25:28;;;;;;;14.38;6.32;;;;;;;;;;5072530;28;20045;-73
2023/07/26 06:27:54;;;;;;;18.60;5.60;;;;;;;;;;5074392;28;20089;-73
2023/07/26 06:30:22;;;;;;;18.08;5.68;;;;;;;;;;5042413;28;20078;-73
2023/07/26 06:32:51;;;;;;;16.55;6.75;;;;;;;;;;5055723;28;20049;-69
2023/07/26 06:35:17;;;;;;;17.70;5.80;;;;;;;;;;5073837;28;20040;-69
2023/07/26 06:37:43;;;;;;;19.00;6.93;;;;;;;;;;5074209;28;20060;-69
2023/07/26 06:40:09;;;;;;;15.63;5.07;;;13.60;99.90;;;;;;5073506;28;20032;-69
2023/07/26 06:42:36;;;;;;;15.07;5.05;;;;;;;;;;5062924;28;20068;-69
2023/07/26 06:45:02;;;;;;;21.42;5.20;;;;;;;;;;5055703;28;20057;-69
2023/07/26 06:47:28;;;;;;;13.55;4.88;;;;;;;;;;5072350;28;20063;-69
2023/07/26 06:49:54;;;;;;;11.85;5.35;;;;;;;;;;5072814;28;20044;-70
2023/07/26 06:52:20;;;;;;;12.77;4.95;;;;;;;;;;5071372;28;20060;-69
2023/07/26 06:54:46;;;;;;;13.63;5.18;;;;;;;;;;5072492;28;20041;-69
2023/07/26 06:57:12;;;;;;;21.67;6.30;;;;;;;;;;5072353;28;20029;-69
2023/07/26 06:59:38;;;;;;;17.50;5.57;;;;;;;;;;5072449;28;20524;-69
2023/07/26 07:02:05;;;;;;;9.07;4.85;;;;;;;;;;5070181;28;20036;-74
2023/07/26 07:04:32;;;;;;;10.15;4.43;;;;;;;;;;5054305;28;20039;-74
2023/07/26 07:06:58;;;;;;;14.80;5.53;;;;;;;;;;5068689;28;20121;-74
2023/07/26 07:09:24;;;;;;;16.38;5.53;;;;;;;;;;5072674;28;20044;-74
2023/07/26 07:11:50;;;;;;;13.73;5.78;;;;;;;;;;5071496;28;20064;-74
2023/07/26 07:14:16;;;;;;;14.68;5.13;;;;;;;;;;5073275;28;20199;-74
2023/07/26 07:16:42;;;;;;;12.85;5.90;;;;;;;;;;5072651;28;20094;-74
2023/07/26 07:19:09;;;;;;;16.63;5.30;;;;;;;;;;5072125;28;20043;-74
2023/07/26 07:21:35;;;;;;;19.38;5.32;;;;;;;;;;5071799;28;20036;-69
2023/07/26 07:24:02;;;;;;;12.95;5.30;;;;;;;;;;5072427;28;20135;-69
2023/07/26 07:26:28;;;;;;;17.15;5.60;;;;;;;;;;5055358;28;20040;-73
2023/07/26 07:28:54;;;;;;;13.57;5.10;;;;;;;;;;5072640;28;20043;-74
2023/07/26 07:31:20;;;;;;;12.70;5.43;;;;;;;;;;5072986;28;20402;-73
2023/07/26 07:33:46;;;;;;;19.48;5.43;;;;;;;;;;5072566;28;20045;-76
2023/07/26 07:36:17;;;;;;;16.17;6.10;;;;;;;;;;5077573;28;20043;-74
2023/07/26 07:38:45;;;;;;;17.35;6.43;;;;;;;;;;5074401;28;20410;-70
2023/07/26 07:41:11;;;;;;;14.20;6.75;;;;;;;;;;5072854;28;20032;-70
2023/07/26 07:43:38;;;;;;;12.82;5.85;;;;;;;;;;5072955;28;20040;-70
2023/07/26 07:46:04;;;;;;;13.32;5.68;;;;;;;;;;5072794;28;20470;-70
2023/07/26 07:48:31;;;;;;;14.30;5.50;;;;;;;;;;5072749;28;20118;-70
2023/07/26 07:50:57;;;;;;;13.40;6.03;;;;;;;;;;5072231;28;20064;-70
2023/07/26 07:53:24;;;;;;;18.00;5.38;;;;;;;;;;5072949;28;20406;-72
2023/07/26 07:55:50;;;;;;;20.23;5.35;;;;;;;;;;5075029;28;20036;-70
2023/07/26 07:58:17;;;;;;;11.25;5.43;;;;;;;;;;5070335;28;20036;-70
2023/07/26 08:00:43;;;;;;;19.13;5.88;;;;;;;;;;5071339;28;20094;-71
2023/07/26 08:03:09;;;;;;;18.88;6.45;;;;;;;;;;5070344;28;20055;-71
2023/07/26 08:05:35;;;;;;;14.25;5.70;;;;;;;;;;5072110;28;20040;-70
2023/07/26 08:08:02;;;;;;;13.90;5.38;;;;;;;;;;5072248;28;20049;-70
2023/07/26 08:10:28;;;;;;;13.10;5.65;;;;;;;;;;5072029;28;20138;-71
2023/07/26 08:12:54;;;;;;;14.98;5.85;;;;;;;;;;5072277;28;20043;-75
2023/07/26 08:15:20;;;;;;;13.75;5.93;;;;;;;;;;5072133;28;20048;-75
2023/07/26 08:17:46;;;;;;;19.52;5.95;;;;;;;;;;5072376;28;20036;-75
2023/07/26 08:20:12;;;;;;;12.02;5.82;;;;;;;;;;5072417;28;20509;-75
2023/07/26 08:22:39;;;;;;;16.75;6.20;;;;;;;;;;5074025;28;20045;-76
2023/07/26 08:25:06;;;;;;;17.80;5.88;;;;;;;;;;5080696;28;20101;-75
2023/07/26 08:27:32;;;;;;;14.13;6.47;;;;;;;;;;5077457;28;20044;-75
2023/07/26 08:29:58;;;;;;;20.15;6.88;;;;;;;;;;5092575;28;20470;-76
2023/07/26 08:32:24;;;;;;;23.40;7.15;;;;;;;;;;5090294;28;20428;-75
2023/07/26 08:34:50;;;;;;;22.13;7.57;;;;;;;;;;5076730;28;20032;-76
2023/07/26 08:37:18;;;;;;;18.10;6.95;;;;;;;;;;5071585;28;20036;-75
2023/07/26 08:39:45;;;;;;;19.10;7.03;;;;;;;;;;5072042;28;20052;-76
2023/07/26 08:42:11;;;;;;;18.60;7.10;;;;;;;;;;5055336;28;20036;-76
2023/07/26 08:44:39;;;;;;;20.00;6.97;;;15.90;99.90;;;;;;5081549;28;20040;-76
2023/07/26 08:47:06;;;;;;;17.95;7.18;;;;;;;;;;5071888;28;20528;-76
2023/07/26 08:49:32;;;;;;;20.42;6.80;;;;;;;;;;5066593;28;20128;-76
2023/07/26 08:52:02;;;;;;;15.18;6.68;;;15.80;99.90;;;;;;5077936;28;20075;-76
2023/07/26 08:54:29;;;;;;;17.55;6.97;;;;;;;;;;5071907;28;20040;-77
2023/07/26 08:56:55;;;;;;;20.30;6.47;;;;;;;;;;5056413;28;20044;-76
2023/07/26 08:59:21;;;;;;;18.05;6.55;;;;;;;;;;5060637;28;20467;-76
2023/07/26 09:01:48;;;;;;;17.65;6.35;;;;;;;;;;5074397;28;20132;-76
2023/07/26 09:04:15;;;;;;;17.77;6.45;;;;;;;;;;5086741;28;20505;-76
2023/07/26 09:06:41;;;;;;;13.93;5.78;;;;;;;;;;5075565;28;20048;-76
2023/07/26 09:09:07;;;;;;;11.75;5.43;;;;;;;;;;5071872;28;20397;-76
2023/07/26 09:11:33;;;;;;;15.73;5.50;;;;;;;;;;5054961;28;20041;-76
2023/07/26 09:14:03;;;;;;;25.92;5.55;;;16.80;99.90;;;;;;5038378;28;20194;-77
2023/07/26 09:16:31;;;;;;;12.18;5.30;;;16.80;99.90;;;;;;5074253;28;20072;-76
2023/07/26 09:19:01;;;;;;;14.43;5.18;;;;;;;;;;5075578;28;20113;-77
2023/07/26 09:21:31;;;;;;;17.45;5.85;;;;;;;;;;5073803;28;20043;-76
2023/07/26 09:23:58;;;;;;;12.65;4.88;;;17.00;99.90;;;;;;5076605;28;20040;-79
2023/07/26 09:26:39;;;;;;;13.43;4.82;;;17.30;99.90;;;;;;5075831;28;20055;-79
2023/07/26 09:29:08;;;;;;;9.48;4.65;;;;;;;;;;5075873;28;20141;-79
2023/07/26 09:31:35;;;;;;;13.07;4.35;;;17.40;99.90;;;;;;5075618;28;20048;-77
2023/07/26 09:34:07;;;;;;;12.95;4.60;;;17.30;99.90;;;;;;5075657;28;20148;-77
2023/07/26 09:36:47;;;;;;;14.98;4.50;;;18.20;99.90;;;;;;5075189;28;20495;-77
2023/07/26 09:39:14;;;;;;;10.18;4.82;;;;;;;;;;5075649;28;20035;-77
2023/07/26 09:41:41;;;;;;;12.25;5.13;;;16.60;99.90;;;;;;5075539;28;20062;-77
2023/07/26 09:44:07;;;;;;;9.02;4.70;;;;;;;;;;5074862;28;20102;-77
2023/07/26 09:46:52;;;;;;;14.48;4.75;;;17.50;99.90;;;;;;5072612;28;20051;-77
2023/07/26 09:49:21;;;;;;;11.82;5.47;;;17.20;99.90;;;;;;5057572;28;20048;-77
2023/07/26 09:51:48;;;;;;;12.57;5.00;;;;;;;;;;5074874;28;20056;-78
2023/07/26 09:54:14;;;;;;;13.13;5.43;;;;;;;;;;5074802;28;20064;-77
2023/07/26 09:56:41;;;;;;;18.45;5.47;;;17.30;99.90;;;;;;5058212;28;20086;-77
2023/07/26 09:59:11;;;;;;;14.93;5.10;;;17.20;99.90;;;;;;5074686;28;20500;-77
2023/07/26 10:01:41;;;;;;;18.23;5.80;;;17.20;99.90;;;;;;5074824;28;20116;-77
2023/07/26 10:04:11;;;;;;;14.07;5.22;;;17.30;99.90;;;;;;5074565;28;20055;-77
2023/07/26 10:06:39;;;;;;;16.50;5.68;;;17.50;99.90;;;;;;5073437;28;20425;-77
2023/07/26 10:09:06;;;;;;;19.70;6.90;;;;;;;;;;5073827;28;20048;-77
2023/07/26 10:11:32;;;;;;;16.65;6.50;;;;;;;;;;5056949;28;20068;-77
2023/07/26 10:13:58;;;;;;;17.00;6.00;;;17.90;99.90;;;;;;5074176;28;20561;-77
2023/07/26 10:16:26;;;;;;;14.00;5.70;;;;;;;;;;5058251;28;20036;-78
2023/07/26 10:18:53;;;;;;;15.13;6.25;;;17.40;99.90;;;;;;5074423;28;20039;-78
2023/07/26 10:21:21;;;;;;;22.48;6.20;;;;;;;;;;5058155;28;20127;-78
2023/07/26 10:23:47;;;;;;;16.27;4.95;;;;;;;;;;5074639;28;20048;-78
2023/07/26 10:26:14;;;;;;;14.90;4.60;;;;;;;;;;5074510;28;20385;-77
2023/07/26 10:28:40;;;;;;;18.27;4.85;;;;;;;;;;5074456;28;20043;-77
2023/07/26 10:31:06;;;;;;;18.15;4.90;;;;;;;;;;5074309;28;20098;-77
2023/07/26 10:33:33;;;;;;;14.07;4.07;;;;;;;;;;5074054;28;20482;-78
2023/07/26 10:36:04;;;;;;;17.02;5.18;;;17.90;99.90;;;;;;5057497;28;20041;-77
2023/07/26 10:38:31;;;;;;;13.50;4.63;;;;;;;;;;5054334;28;20072;-77
2023/07/26 10:40:57;;;;;;;11.88;4.80;;;;;;;;;;5073219;28;20040;-78
2023/07/26 10:43:23;;;;;;;12.45;4.57;;;;;;;;;;5073693;28;20473;-77
2023/07/26 10:45:52;;;;;;;10.20;4.47;;;17.60;99.90;;;;;;5074243;28;20386;-78
2023/07/26 10:48:27;;;;;;;16.33;5.50;;;;;;;;;;5073961;28;20367;-77
2023/07/26 10:50:59;;;;;;;17.42;4.63;;;17.50;99.90;;;;;;5056817;28;20146;-77
2023/07/26 10:53:37;;;;;;;18.30;4.50;;;17.10;99.90;;;;;;5073600;28;20045;-77
2023/07/26 10:56:32;;;;;;;16.15;4.72;;;;;;;;;;5073248;28;20082;-77
2023/07/26 10:59:04;;;;;;;16.92;5.03;;;17.90;99.90;;;;;;5056696;28;20040;-78
2023/07/26 11:01:35;;;;;;;18.38;5.30;;;17.20;99.90;;;;;;5073243;28;20039;-77
2023/07/26 11:04:01;;;;;;;21.48;5.38;;;;;;;;;;5070626;28;20045;-78
2023/07/26 11:06:55;;;;;;;18.00;5.47;;;16.20;99.90;;;;;;5053405;28;20399;-77
2023/07/26 11:09:25;;;;;;;15.82;4.50;;;17.70;99.90;;;;;;5073331;28;20040;-78
2023/07/26 11:12:09;;;;;;;23.13;5.20;;;18.10;99.90;;;;;;5056379;28;20135;-77
2023/07/26 11:14:37;;;;;;;16.25;5.28;;;18.40;99.90;;;;;;5056726;28;20043;-77
2023/07/26 11:17:16;;;;;;;12.25;4.40;;;;;;;;;;5090124;28;20032;-77
2023/07/26 11:19:50;;;;;;;10.32;3.45;;;18.70;99.90;;;;;;5073165;28;20042;-78
2023/07/26 11:22:18;;;;;;;16.27;4.13;;;18.50;99.90;;;;;;5071176;28;20036;-77
2023/07/26 11:24:46;;;;;;;10.18;3.42;;;;;;;;;;5090161;28;20056;-77
2023/07/26 11:27:12;;;;;;;13.82;4.80;;;;;;;;;;5056248;28;20044;-77
2023/07/26 11:29:38;;;;;;;9.73;3.53;;;;;;;;;;5073174;28;20044;-72
2023/07/26 11:32:04;;;;;;;10.90;3.13;;;;;;;;;;5072248;28;20044;-76
2023/07/26 11:34:30;;;;;;;11.18;3.70;;;;;;;;;;5072305;28;20037;-77
2023/07/26 11:37:07;;;;;;;11.02;3.65;;;19.50;99.90;;;;;;5069817;28;20094;-77
2023/07/26 11:39:33;;;;;;;14.90;3.45;;;;;;;;;;5055530;28;20068;-77
2023/07/26 11:41:59;;;;;;;17.70;4.07;;;;;;;;;;5072789;28;20064;-77
2023/07/26 11:44:25;;;;;;;11.95;3.33;;;;;;;;;;5039591;28;20044;-77
2023/07/26 11:46:51;;;;;;;11.38;3.17;;;;;;;;;;5072663;28;20064;-77
2023/07/26 11:49:21;;;;;;;13.38;3.50;;;18.40;99.90;;;;;;5072591;28;20078;-77
2023/07/26 11:51:48;;;;;;;11.35;3.63;;;;;;;;;;5089165;28;20061;-77
2023/07/26 11:54:14;;;;;;;9.50;3.40;;;;;;;;;;5056415;28;20079;-76
2023/07/26 11:56:41;;;;;;;12.70;3.75;;;19.80;99.90;;;;;;5072279;28;20163;-78
2023/07/26 11:59:09;;;;;;;16.23;3.78;;;18.80;99.90;;;;;;5055519;28;20052;-78
2023/07/26 12:01:36;;;;;;;14.55;3.80;;;;;;;;;;5071666;28;20387;-72
2023/07/26 12:04:16;;;;;;;11.05;4.13;;;;;;;;;;5039422;28;20033;-72
2023/07/26 12:06:44;;;;;;;14.68;3.90;;;19.70;99.90;;;;;;5071657;28;20045;-72
2023/07/26 12:09:11;;;;;;;10.57;3.35;;;19.30;98.00;;;;;;5056331;28;20047;-72
2023/07/26 12:11:51;;;;;;;16.90;3.47;;;19.70;96.70;;;;;;5072079;28;20041;-72
2023/07/26 12:14:19;;;;;;;10.65;3.38;;;19.90;97.20;;;;;;5055772;28;20463;-72
2023/07/26 12:16:49;;;;;;;9.80;3.40;;;20.60;99.70;;;;;;5071725;28;20559;-78
2023/07/26 12:19:18;;;;;;;16.65;3.40;;;19.70;99.90;;;;;;5072639;28;20363;-78
2023/07/26 12:21:47;;;;;;;14.73;3.78;;;20.30;99.10;;;;;;5071437;28;20547;-77
2023/07/26 12:24:13;;;;;;;9.65;3.60;;;;;;;;;;5071678;28;20123;-79
2023/07/26 12:26:44;;;;;;;15.15;4.30;;;20.20;97.30;;;;;;5055397;28;20044;-79
2023/07/26 12:29:10;;;;;;;10.95;3.70;;;21.00;99.90;;;;;;5072098;28;20049;-78
2023/07/26 12:31:39;;;;;;;15.82;3.42;;;19.50;96.80;;;;;;5072093;28;20493;-78
2023/07/26 12:34:09;;;;;;;14.13;3.88;;;19.40;99.90;;;;;;5051746;28;20059;-78
2023/07/26 12:36:40;;;;;;;8.85;3.63;;;20.80;99.90;;;;;;5052232;28;20047;-78
2023/07/26 12:39:08;;;;;;;12.15;3.60;;;22.00;96.30;;;;;;5071645;28;20095;-78
2023/07/26 12:41:38;;;;;;;8.85;3.63;;;20.50;99.90;;;;;;5074461;28;20036;-78
2023/07/26 12:44:07;;;;;;;7.15;3.30;;;;;;;;;;5091364;28;20131;-77
2023/07/26 12:46:37;;;;;;;10.68;3.70;;;19.50;99.90;;;;;;5064918;28;20045;-78
2023/07/26 12:49:06;;;;;;;11.85;4.00;;;19.90;96.10;;;;;;5089888;28;20044;-77
2023/07/26 12:51:32;;;;;;;12.73;3.90;;;20.80;99.90;;;;;;5073399;28;20060;-78
2023/07/26 12:53:58;;;;;;;10.00;3.80;;;;;;;;;;5055126;28;20190;-78
2023/07/26 12:56:24;;;;;;;9.98;3.33;;;20.90;99.90;;;;;;5072785;28;20060;-79
2023/07/26 12:58:51;;;;;;;14.00;4.40;;;;;;;;;;5071845;28;20044;-78
2023/07/26 13:01:17;;;;;;;13.55;3.80;;;20.20;95.00;;;;;;5071696;28;20032;-78
2023/07/26 13:03:46;;;;;;;10.32;3.55;;;19.70;98.50;;;;;;5071883;28;20036;-78
2023/07/26 13:06:13;;;;;;;10.57;4.13;;;;;;;;;;5071848;28;20379;-77
2023/07/26 13:08:39;;;;;;;9.18;3.75;;;;;;;;;;5072011;28;20048;-78
2023/07/26 13:11:05;;;;;;;13.13;3.92;;;20.90;99.90;;;;;;5055028;28;20375;-78
2023/07/26 13:13:31;;;;;;;12.18;4.03;;;21.00;99.90;;;;;;5071435;28;20098;-77
2023/07/26 13:15:57;;;;;;;13.93;4.47;;;21.00;99.40;;;;;;5070827;28;20386;-78
2023/07/26 13:18:23;;;;;;;13.68;4.43;;;20.10;99.90;;;;;;5069743;28;20123;-72
2023/07/26 13:20:49;;;;;;;21.50;4.10;;;19.10;99.90;;;;;;5069733;28;20051;-73
2023/07/26 13:23:15;;;;;;;14.00;4.43;;;20.60;99.90;;;;;;5070783;28;20044;-73
2023/07/26 13:25:41;;;;;;;11.02;4.13;;;20.70;99.90;;;;;;5054655;28;20485;-73
2023/07/26 13:28:08;;;;;;;17.67;4.47;;;;;;;;;;5065527;28;20040;-72
2023/07/26 13:30:34;;;;;;;20.60;6.40;;;;;;;;;;5051641;28;20402;-72
2023/07/26 13:33:00;;;;;;;8.55;4.10;;;;;;;;;;5056364;28;20131;-73
2023/07/26 13:35:26;;;;;;;11.10;4.10;;;21.10;96.20;;;;;;5071292;28;20051;-73
2023/07/26 13:37:52;;;;;;;18.02;4.03;;;;;;;;;;5054475;28;20123;-73
2023/07/26 13:40:19;;;;;;;8.40;4.15;;;21.20;99.90;;;;;;5071412;28;20124;-73
2023/07/26 13:42:45;;;;;;;11.35;3.78;;;21.20;99.30;;;;;;5038261;28;20041;-73
2023/07/26 13:45:12;;;;;;;10.13;4.07;;;21.50;96.90;;;;;;5071396;28;20055;-78
2023/07/26 13:47:39;;;;;;;10.07;4.30;;;20.90;99.00;;;;;;5070556;28;20037;-78
2023/07/26 13:50:05;;;;;;;18.63;4.07;;;;;;;;;;5070150;28;20131;-79
2023/07/26 13:52:31;;;;;;;10.02;3.70;;;;;;;;;;5076743;28;20048;-78
2023/07/26 13:54:57;;;;;;;14.13;3.50;;;21.80;95.80;;;;;;5071382;28;20055;-79
2023/07/26 13:57:23;;;;;;;9.55;3.28;;;21.30;96.30;;;;;;5054870;28;20048;-79
2023/07/26 13:59:49;;;;;;;9.13;3.28;;;21.70;92.90;;;;;;5072759;28;20056;-80